createdAt,value
2023-05-22T00:00:08.857Z,22.65
2023-05-22T00:02:43.647Z,22.73
2023-05-22T00:05:15.179Z,22.78
2023-05-22T00:07:43.292Z,22.81
2023-05-22T00:10:10.693Z,22.76
2023-05-22T00:12:37.354Z,22.78
2023-05-22T00:15:04.896Z,22.76
2023-05-22T00:17:31.777Z,22.71
2023-05-22T00:20:07.266Z,22.54
2023-05-22T00:22:37.438Z,22.76
2023-05-22T00:25:05.583Z,22.69
2023-05-22T00:27:33.442Z,22.79
2023-05-22T00:30:00.343Z,22.72
2023-05-22T00:32:29.011Z,22.70
2023-05-22T00:34:55.746Z,22.66
2023-05-22T00:37:22.386Z,22.56
2023-05-22T00:39:49.249Z,22.63
2023-05-22T00:42:15.906Z,22.67
2023-05-22T00:44:42.696Z,22.62
2023-05-22T00:47:09.302Z,22.50
2023-05-22T00:49:35.972Z,22.59
2023-05-22T00:52:03.040Z,22.60
2023-05-22T00:54:32.000Z,22.56
2023-05-22T00:57:00.607Z,22.60
2023-05-22T00:59:28.073Z,22.63
2023-05-22T01:03:45.275Z,22.55
2023-05-22T01:06:18.012Z,22.61
2023-05-22T01:08:44.983Z,22.62
2023-05-22T01:11:22.236Z,22.57
2023-05-22T01:14:04.216Z,22.46
2023-05-22T01:16:37.493Z,22.48
2023-05-22T01:19:23.695Z,22.29
2023-05-22T01:22:34.103Z,22.44
2023-05-22T01:25:09.724Z,22.37
2023-05-22T01:27:48.063Z,22.26
2023-05-22T01:30:17.730Z,22.22
2023-05-22T01:32:46.958Z,21.93
2023-05-22T01:35:17.742Z,22.06
2023-05-22T01:37:45.498Z,22.04
2023-05-22T01:40:13.963Z,21.87
2023-05-22T01:42:41.315Z,21.87
2023-05-22T01:45:11.809Z,21.73
2023-05-22T01:47:38.451Z,21.51
2023-05-22T01:50:06.191Z,21.57
2023-05-22T01:52:41.995Z,21.64
2023-05-22T01:55:17.545Z,21.57
2023-05-22T01:57:53.964Z,21.51
2023-05-22T02:00:24.540Z,21.15
2023-05-22T02:03:05.957Z,21.42
2023-05-22T02:05:35.923Z,21.32
2023-05-22T02:08:03.776Z,21.19
2023-05-22T02:10:31.772Z,21.33
2023-05-22T02:12:58.546Z,21.21
2023-05-22T02:15:25.154Z,21.18
2023-05-22T02:17:53.322Z,21.18
2023-05-22T02:20:20.218Z,21.12
2023-05-22T02:22:47.893Z,21.01
2023-05-22T02:25:17.253Z,21.05
2023-05-22T02:27:46.100Z,20.89
2023-05-22T02:30:14.163Z,20.89
2023-05-22T02:32:41.146Z,20.76
2023-05-22T02:35:08.510Z,20.68
2023-05-22T02:37:35.615Z,20.47
2023-05-22T02:40:02.271Z,20.59
2023-05-22T02:42:28.930Z,20.61
2023-05-22T02:44:55.645Z,20.40
2023-05-22T02:47:22.375Z,20.47
2023-05-22T02:49:49.045Z,20.51
2023-05-22T02:52:15.699Z,20.41
2023-05-22T02:54:42.357Z,20.30
2023-05-22T02:57:08.938Z,20.21
2023-05-22T02:59:36.889Z,20.18
2023-05-22T03:02:03.994Z,20.18
2023-05-22T03:04:30.787Z,20.15
2023-05-22T03:06:57.481Z,20.14
2023-05-22T03:09:24.150Z,20.14
2023-05-22T03:11:50.799Z,20.11
2023-05-22T03:14:17.450Z,19.84
2023-05-22T03:16:44.162Z,19.90
2023-05-22T03:19:15.648Z,20.00
2023-05-22T03:21:45.790Z,19.98
2023-05-22T03:24:15.267Z,19.95
2023-05-22T03:26:44.598Z,19.88
2023-05-22T03:29:11.274Z,19.67
2023-05-22T03:31:37.882Z,19.68
2023-05-22T03:34:05.843Z,19.74
2023-05-22T03:36:35.986Z,19.73
2023-05-22T03:39:04.045Z,19.45
2023-05-22T03:41:30.929Z,19.66
2023-05-22T03:43:58.461Z,19.58
2023-05-22T03:46:25.236Z,19.64
2023-05-22T03:48:51.972Z,19.64
2023-05-22T03:51:20.347Z,19.50
2023-05-22T03:53:47.154Z,19.65
2023-05-22T03:56:13.828Z,19.58
2023-05-22T03:58:40.525Z,19.68
2023-05-22T04:01:09.834Z,19.57
2023-05-22T04:03:37.778Z,19.65
2023-05-22T04:06:05.707Z,19.64
2023-05-22T04:08:32.628Z,19.64
2023-05-22T04:10:59.315Z,19.67
2023-05-22T04:13:27.224Z,19.66
2023-05-22T04:15:54.181Z,19.83
2023-05-22T04:18:21.009Z,19.70
2023-05-22T04:20:47.737Z,19.82
2023-05-22T04:23:14.419Z,19.73
2023-05-22T04:25:41.175Z,19.96
2023-05-22T04:28:09.486Z,19.91
2023-05-22T04:30:40.379Z,20.07
2023-05-22T04:33:08.569Z,20.22
2023-05-22T04:35:35.305Z,20.61
2023-05-22T04:38:06.889Z,21.25
2023-05-22T04:40:34.424Z,21.80
2023-05-22T04:43:01.616Z,22.42
2023-05-22T04:45:29.195Z,22.73
2023-05-22T04:47:56.378Z,23.00
2023-05-22T04:50:24.235Z,23.04
2023-05-22T04:52:50.999Z,23.56
2023-05-22T04:55:19.554Z,23.99
2023-05-22T04:57:47.480Z,24.31
2023-05-22T05:00:17.103Z,23.88
2023-05-22T05:02:44.157Z,23.74
2023-05-22T05:05:10.859Z,24.36
2023-05-22T05:07:40.211Z,24.62
2023-05-22T05:10:07.754Z,24.33
2023-05-22T05:12:34.520Z,23.88
2023-05-22T05:15:02.388Z,23.54
2023-05-22T05:17:29.121Z,23.42
2023-05-22T05:19:55.887Z,22.78
2023-05-22T05:22:22.902Z,22.49
2023-05-22T05:24:49.681Z,22.22
2023-05-22T05:27:16.427Z,22.19
2023-05-22T05:29:43.009Z,22.48
2023-05-22T05:32:11.595Z,23.43
2023-05-22T05:34:38.411Z,24.24
2023-05-22T05:37:05.632Z,25.21
2023-05-22T05:39:32.342Z,25.71
2023-05-22T05:42:00.245Z,26.12
2023-05-22T05:44:27.072Z,26.80
2023-05-22T05:46:53.784Z,27.32
2023-05-22T05:49:20.611Z,27.18
2023-05-22T05:51:47.203Z,27.71
2023-05-22T05:54:13.867Z,27.93
2023-05-22T05:56:40.731Z,28.24
2023-05-22T05:59:07.489Z,28.04
2023-05-22T06:01:35.303Z,29.05
2023-05-22T06:04:04.261Z,28.60
2023-05-22T06:06:35.786Z,28.26
2023-05-22T06:09:03.854Z,29.07
2023-05-22T06:11:30.753Z,29.87
2023-05-22T06:13:59.515Z,29.68
2023-05-22T06:16:26.533Z,29.66
2023-05-22T06:18:53.465Z,29.88
2023-05-22T06:21:23.007Z,29.85
2023-05-22T06:23:50.216Z,30.18
2023-05-22T06:26:17.716Z,30.06
2023-05-22T06:28:45.107Z,30.44
2023-05-22T06:31:11.704Z,30.60
2023-05-22T06:33:40.587Z,29.28
2023-05-22T06:36:09.025Z,30.62
2023-05-22T06:38:37.929Z,31.05
2023-05-22T06:41:06.226Z,31.20
2023-05-22T06:43:33.194Z,31.17
2023-05-22T06:46:00.005Z,31.06
2023-05-22T06:48:26.818Z,31.73
2023-05-22T06:50:53.475Z,31.84
2023-05-22T06:53:20.144Z,31.90
2023-05-22T06:55:46.915Z,31.53
2023-05-22T06:58:13.893Z,31.77
2023-05-22T07:00:42.336Z,30.94
2023-05-22T07:03:09.581Z,31.81
2023-05-22T07:05:36.864Z,30.37
2023-05-22T07:08:03.701Z,31.51
2023-05-22T07:10:30.519Z,31.98
2023-05-22T07:12:57.170Z,30.77
2023-05-22T07:15:23.753Z,30.93
2023-05-22T07:17:50.471Z,29.53
2023-05-22T07:20:17.778Z,29.53
2023-05-22T07:22:44.435Z,29.23
2023-05-22T07:25:11.138Z,30.08
2023-05-22T07:27:37.865Z,30.95
2023-05-22T07:30:04.918Z,31.28
2023-05-22T07:32:31.597Z,31.64
2023-05-22T07:34:58.341Z,32.29
2023-05-22T07:37:25.075Z,30.40
2023-05-22T07:39:51.711Z,30.17
2023-05-22T07:42:18.510Z,29.77
2023-05-22T07:44:45.353Z,30.17
2023-05-22T07:47:12.482Z,30.64
2023-05-22T07:49:39.170Z,29.97
2023-05-22T07:52:06.500Z,30.78
2023-05-22T07:54:33.206Z,30.27
2023-05-22T07:57:03.705Z,30.22
2023-05-22T07:59:30.625Z,29.57
2023-05-22T08:01:58.336Z,29.43
2023-05-22T08:04:26.054Z,31.06
2023-05-22T08:06:52.772Z,30.48
2023-05-22T08:09:21.313Z,30.17
2023-05-22T08:11:48.015Z,31.23
2023-05-22T08:14:14.704Z,31.10
2023-05-22T08:16:41.447Z,31.47
2023-05-22T08:19:08.993Z,30.30
2023-05-22T08:21:35.973Z,30.26
2023-05-22T08:24:02.842Z,31.32
2023-05-22T08:26:30.715Z,32.30
2023-05-22T08:28:58.883Z,30.58
2023-05-22T08:31:25.955Z,31.72
2023-05-22T08:33:52.652Z,31.57
2023-05-22T08:36:19.307Z,31.60
2023-05-22T08:38:45.940Z,32.44
2023-05-22T08:41:13.824Z,30.57
2023-05-22T08:43:41.662Z,31.51
2023-05-22T08:46:09.782Z,31.64
2023-05-22T08:48:38.319Z,32.25
2023-05-22T08:51:06.193Z,32.25
2023-05-22T08:53:37.048Z,32.13
2023-05-22T08:56:06.805Z,31.71
2023-05-22T08:58:37.851Z,31.88
2023-05-22T09:01:06.073Z,32.13
2023-05-22T09:03:33.610Z,30.77
2023-05-22T09:06:01.228Z,31.85
2023-05-22T09:08:29.086Z,32.22
2023-05-22T09:10:56.611Z,30.72
2023-05-22T09:13:27.470Z,29.96
2023-05-22T09:15:59.559Z,30.56
2023-05-22T09:18:29.912Z,30.02
2023-05-22T09:21:00.075Z,29.84
2023-05-22T09:23:28.461Z,30.23
2023-05-22T09:25:57.129Z,30.69
2023-05-22T09:28:24.841Z,30.85
2023-05-22T09:30:56.066Z,31.47
2023-05-22T09:33:23.300Z,31.94
2023-05-22T09:35:53.518Z,31.61
2023-05-22T09:38:23.403Z,31.03
2023-05-22T09:40:54.483Z,31.11
2023-05-22T09:43:23.838Z,31.24
2023-05-22T09:45:57.137Z,31.74
2023-05-22T09:48:24.570Z,31.16
2023-05-22T09:50:53.710Z,30.71
2023-05-22T09:53:28.129Z,30.39
2023-05-22T09:56:00.023Z,30.59
2023-05-22T09:58:31.121Z,30.86
2023-05-22T10:00:59.311Z,31.18
2023-05-22T10:03:27.985Z,30.35
2023-05-22T10:05:57.863Z,31.00
2023-05-22T10:08:38.862Z,30.07
2023-05-22T10:11:06.435Z,30.28
2023-05-22T10:13:36.340Z,30.64
2023-05-22T10:16:04.980Z,30.39
2023-05-22T10:18:31.919Z,29.78
2023-05-22T10:21:00.179Z,29.45
2023-05-22T10:23:28.392Z,29.91
2023-05-22T10:25:56.315Z,29.48
2023-05-22T10:28:25.964Z,29.69
2023-05-22T10:31:14.300Z,30.00
2023-05-22T10:33:51.703Z,29.83
2023-05-22T10:36:41.812Z,29.63
2023-05-22T10:39:35.553Z,29.01
2023-05-22T10:42:02.279Z,29.27
2023-05-22T10:44:29.336Z,29.12
2023-05-22T10:46:56.003Z,28.67
2023-05-22T10:49:23.692Z,28.78
2023-05-22T10:51:56.161Z,28.57
2023-05-22T10:54:42.968Z,29.34
2023-05-22T10:57:13.088Z,29.22
2023-05-22T10:59:40.301Z,29.06
2023-05-22T11:02:22.459Z,28.95
2023-05-22T11:04:49.449Z,29.62
2023-05-22T11:07:16.252Z,29.14
2023-05-22T11:09:48.214Z,28.46
2023-05-22T11:12:22.423Z,29.25
2023-05-22T11:14:57.692Z,29.24
2023-05-22T11:17:29.657Z,28.79
2023-05-22T11:20:00.454Z,28.80
2023-05-22T11:22:31.713Z,28.92
2023-05-22T11:24:58.452Z,28.84
2023-05-22T11:27:25.477Z,29.06
2023-05-22T11:29:52.876Z,29.20
2023-05-22T11:32:21.072Z,28.98
2023-05-22T11:34:50.108Z,29.39
2023-05-22T11:37:19.805Z,29.20
2023-05-22T11:40:01.001Z,29.05
2023-05-22T11:42:27.704Z,29.29
2023-05-22T11:44:55.481Z,29.16
2023-05-22T11:47:22.391Z,29.07
2023-05-22T11:49:49.191Z,29.29
2023-05-22T11:52:19.321Z,29.16
2023-05-22T11:54:49.248Z,29.34
2023-05-22T11:57:16.219Z,29.12
2023-05-22T11:59:47.025Z,28.94
2023-05-22T12:02:14.539Z,29.35
2023-05-22T12:04:43.652Z,29.34
2023-05-22T12:07:10.510Z,28.64
2023-05-22T12:09:40.740Z,28.81
2023-05-22T12:12:10.407Z,28.78
2023-05-22T12:14:37.686Z,29.18
2023-05-22T12:17:04.853Z,29.22
2023-05-22T12:19:32.570Z,29.38
2023-05-22T12:21:59.524Z,29.42
2023-05-22T12:24:26.474Z,29.69
2023-05-22T12:26:56.607Z,29.68
2023-05-22T12:29:23.758Z,29.40
2023-05-22T12:31:51.556Z,29.30
2023-05-22T12:34:18.740Z,29.34
2023-05-22T12:36:47.170Z,29.15
2023-05-22T12:39:18.493Z,29.30
2023-05-22T12:41:45.964Z,29.04
2023-05-22T12:44:15.080Z,29.29
2023-05-22T12:46:41.904Z,29.51
2023-05-22T12:49:09.112Z,29.18
2023-05-22T12:51:35.762Z,29.12
2023-05-22T12:54:03.366Z,28.88
2023-05-22T12:56:31.497Z,29.03
2023-05-22T12:58:58.827Z,29.07
2023-05-22T13:01:26.568Z,29.41
2023-05-22T13:03:53.438Z,29.43
2023-05-22T13:06:20.735Z,29.48
2023-05-22T13:08:47.426Z,28.96
2023-05-22T13:11:14.241Z,28.60
2023-05-22T13:13:41.152Z,28.37
2023-05-22T13:16:10.284Z,28.46
2023-05-22T13:18:36.926Z,28.76
2023-05-22T13:21:03.596Z,28.91
2023-05-22T13:23:30.376Z,29.01
2023-05-22T13:25:57.023Z,29.18
2023-05-22T13:28:23.624Z,29.08
2023-05-22T13:30:50.279Z,29.22
2023-05-22T13:33:16.995Z,29.43
2023-05-22T13:35:44.734Z,29.36
2023-05-22T13:38:11.421Z,29.20
2023-05-22T13:40:38.103Z,29.35
2023-05-22T13:43:04.742Z,29.16
2023-05-22T13:45:31.574Z,28.84
2023-05-22T13:47:58.279Z,29.16
2023-05-22T13:50:24.948Z,29.09
2023-05-22T13:52:52.295Z,29.04
2023-05-22T13:55:18.927Z,29.13
2023-05-22T13:57:45.883Z,29.06
2023-05-22T14:00:15.474Z,28.97
2023-05-22T14:02:42.250Z,28.88
2023-05-22T14:05:09.294Z,28.98
2023-05-22T14:07:35.988Z,29.35
2023-05-22T14:10:03.020Z,29.41
2023-05-22T14:12:29.815Z,29.07
2023-05-22T14:14:56.532Z,29.74
2023-05-22T14:17:25.388Z,29.51
2023-05-22T14:19:52.120Z,29.45
2023-05-22T14:22:18.735Z,29.59
2023-05-22T14:24:45.389Z,29.79
2023-05-22T14:27:11.967Z,29.48
2023-05-22T14:29:38.586Z,29.39
2023-05-22T14:32:05.466Z,29.31
2023-05-22T14:34:32.190Z,29.55
2023-05-22T14:36:58.899Z,29.32
2023-05-22T14:39:25.988Z,29.45
2023-05-22T14:41:55.816Z,29.47
2023-05-22T14:44:22.811Z,29.04
2023-05-22T14:46:51.152Z,29.29
2023-05-22T14:49:18.104Z,29.41
2023-05-22T14:51:48.030Z,29.12
2023-05-22T14:54:17.993Z,29.33
2023-05-22T14:56:45.534Z,29.07
2023-05-22T14:59:12.121Z,28.98
2023-05-22T15:01:39.260Z,28.96
2023-05-22T15:04:07.923Z,28.90
2023-05-22T15:06:35.471Z,29.11
2023-05-22T15:09:02.286Z,29.42
2023-05-22T15:11:28.959Z,29.27
2023-05-22T15:13:55.666Z,29.32
2023-05-22T15:16:22.738Z,29.43
2023-05-22T15:18:50.608Z,29.16
2023-05-22T15:21:17.515Z,29.24
2023-05-22T15:23:44.312Z,28.93
2023-05-22T15:26:11.086Z,28.97
2023-05-22T15:28:37.874Z,28.64
2023-05-22T15:31:05.693Z,28.44
2023-05-22T15:33:33.994Z,28.55
2023-05-22T15:36:00.720Z,28.57
2023-05-22T15:38:28.360Z,28.61
2023-05-22T15:40:55.098Z,28.31
2023-05-22T15:43:22.711Z,28.56
2023-05-22T15:45:50.532Z,28.38
2023-05-22T15:48:17.192Z,28.41
2023-05-22T15:50:44.499Z,28.09
2023-05-22T15:53:11.124Z,27.98
2023-05-22T15:55:37.978Z,28.41
2023-05-22T15:58:08.447Z,28.64
2023-05-22T16:00:40.972Z,28.58
2023-05-22T16:03:08.934Z,28.45
2023-05-22T16:05:39.842Z,28.20
2023-05-22T16:08:09.826Z,28.33
2023-05-22T16:10:36.592Z,27.98
2023-05-22T16:13:05.376Z,27.96
2023-05-22T16:15:32.451Z,28.01
2023-05-22T16:18:00.327Z,28.07
2023-05-22T16:20:27.026Z,27.70
2023-05-22T16:22:54.119Z,27.69
2023-05-22T16:25:21.058Z,27.62
2023-05-22T16:27:47.760Z,27.41
2023-05-22T16:30:16.826Z,27.48
2023-05-22T16:32:47.874Z,27.48
2023-05-22T16:35:15.861Z,27.31
2023-05-22T16:37:42.529Z,27.41
2023-05-22T16:40:09.500Z,27.52
2023-05-22T16:42:36.979Z,27.46
2023-05-22T16:45:04.506Z,27.44
2023-05-22T16:47:32.861Z,27.37
2023-05-22T16:49:59.978Z,27.22
2023-05-22T16:52:26.673Z,27.17
2023-05-22T16:54:54.048Z,27.31
2023-05-22T16:57:20.686Z,27.23
2023-05-22T16:59:47.511Z,27.33
2023-05-22T17:02:14.224Z,27.46
2023-05-22T17:04:41.170Z,27.46
2023-05-22T17:07:07.958Z,27.36
2023-05-22T17:09:34.803Z,27.33
2023-05-22T17:12:01.627Z,27.15
2023-05-22T17:14:28.352Z,27.14
2023-05-22T17:16:56.145Z,27.21
2023-05-22T17:19:23.083Z,27.09
2023-05-22T17:21:49.897Z,27.06
2023-05-22T17:24:16.512Z,26.94
2023-05-22T17:26:44.085Z,26.96
2023-05-22T17:29:11.587Z,26.86
2023-05-22T17:31:39.713Z,26.80
2023-05-22T17:34:06.858Z,26.71
2023-05-22T17:36:33.883Z,26.89
2023-05-22T17:39:00.751Z,26.86
2023-05-22T17:41:27.416Z,26.85
2023-05-22T17:43:57.059Z,26.85
2023-05-22T17:46:23.698Z,26.71
2023-05-22T17:48:50.567Z,26.71
2023-05-22T17:51:17.286Z,26.65
2023-05-22T17:53:44.075Z,26.38
2023-05-22T17:56:10.658Z,26.19
2023-05-22T17:58:37.325Z,26.32
2023-05-22T18:01:04.070Z,26.13
2023-05-22T18:03:31.124Z,26.33
2023-05-22T18:05:57.849Z,26.06
2023-05-22T18:08:24.534Z,26.12
2023-05-22T18:10:51.366Z,26.02
2023-05-22T18:13:19.545Z,25.45
2023-05-22T18:15:46.237Z,25.65
2023-05-22T18:18:13.276Z,25.69
2023-05-22T18:20:40.289Z,25.60
2023-05-22T18:23:07.214Z,25.56
2023-05-22T18:25:33.841Z,25.46
2023-05-22T18:28:00.948Z,25.44
2023-05-22T18:30:27.609Z,25.40
2023-05-22T18:32:54.310Z,25.32
2023-05-22T18:35:21.062Z,25.29
2023-05-22T18:37:47.678Z,25.02
2023-05-22T18:40:15.314Z,25.06
2023-05-22T18:42:43.392Z,25.00
2023-05-22T18:45:11.980Z,24.84
2023-05-22T18:47:38.681Z,25.06
2023-05-22T18:50:05.903Z,25.02
2023-05-22T18:52:32.639Z,24.72
2023-05-22T18:54:59.327Z,24.90
2023-05-22T18:57:27.066Z,24.71
2023-05-22T18:59:53.834Z,24.29
2023-05-22T19:02:22.108Z,24.56
2023-05-22T19:04:51.631Z,24.52
2023-05-22T19:07:18.345Z,24.30
2023-05-22T19:09:45.009Z,24.38
2023-05-22T19:12:12.550Z,23.91
2023-05-22T19:14:41.269Z,23.89
2023-05-22T19:17:08.095Z,24.01
2023-05-22T19:19:35.597Z,23.98
2023-05-22T19:22:02.299Z,23.75
2023-05-22T19:24:29.182Z,23.63
2023-05-22T19:26:55.854Z,23.70
2023-05-22T19:29:22.565Z,23.52
2023-05-22T19:31:49.511Z,23.58
2023-05-22T19:34:16.372Z,23.55
2023-05-22T19:36:43.138Z,23.12
2023-05-22T19:39:09.874Z,23.30
2023-05-22T19:41:36.522Z,23.18
2023-05-22T19:44:03.730Z,22.74
2023-05-22T19:46:30.687Z,22.97
2023-05-22T19:48:57.629Z,22.78
2023-05-22T19:51:24.281Z,22.57
2023-05-22T19:53:50.839Z,22.79
2023-05-22T19:56:17.548Z,22.74
2023-05-22T19:58:44.216Z,22.70
2023-05-22T20:01:10.819Z,22.63
2023-05-22T20:03:37.772Z,22.63
2023-05-22T20:06:04.618Z,22.53
2023-05-22T20:08:31.240Z,22.37
2023-05-22T20:10:58.151Z,22.36
2023-05-22T20:13:24.778Z,22.32
2023-05-22T20:15:53.232Z,22.29
2023-05-22T20:18:20.861Z,22.24
2023-05-22T20:20:47.670Z,22.10
2023-05-22T20:23:14.306Z,22.09
2023-05-22T20:25:41.477Z,22.09
2023-05-22T20:28:08.409Z,21.94
2023-05-22T20:30:35.158Z,21.92
2023-05-22T20:33:01.881Z,22.04
2023-05-22T20:35:30.564Z,21.98
2023-05-22T20:37:58.542Z,22.01
2023-05-22T20:40:26.582Z,21.85
2023-05-22T20:42:53.616Z,21.85
2023-05-22T20:45:20.424Z,21.67
2023-05-22T20:47:47.137Z,21.87
2023-05-22T20:50:13.892Z,21.77
2023-05-22T20:52:40.531Z,21.67
2023-05-22T20:55:07.519Z,21.57
2023-05-22T20:57:34.543Z,21.63
2023-05-22T21:00:01.601Z,21.55
2023-05-22T21:02:28.252Z,21.41
2023-05-22T21:04:54.948Z,21.17
2023-05-22T21:07:21.620Z,21.42
2023-05-22T21:09:48.272Z,21.38
2023-05-22T21:12:15.131Z,21.21
2023-05-22T21:14:49.694Z,21.11
2023-05-22T21:17:17.754Z,21.29
2023-05-22T21:19:44.415Z,21.26
2023-05-22T21:22:11.059Z,21.11
2023-05-22T21:24:37.684Z,21.15
2023-05-22T21:27:04.471Z,20.79
2023-05-22T21:29:31.121Z,21.15
2023-05-22T21:31:57.812Z,21.03
2023-05-22T21:34:24.472Z,21.02
2023-05-22T21:36:51.170Z,21.05
2023-05-22T21:39:18.307Z,21.03
2023-05-22T21:41:45.648Z,21.02
2023-05-22T21:44:12.418Z,20.86
2023-05-22T21:46:39.136Z,21.01
2023-05-22T21:49:06.253Z,20.96
2023-05-22T21:51:33.683Z,20.65
2023-05-22T21:54:00.374Z,20.88
2023-05-22T21:56:27.125Z,20.73
2023-05-22T21:58:53.899Z,20.75
2023-05-22T22:01:20.986Z,20.67
2023-05-22T22:03:47.744Z,20.64
2023-05-22T22:06:14.672Z,20.51
2023-05-22T22:08:41.284Z,20.54
2023-05-22T22:11:07.896Z,20.46
2023-05-22T22:13:34.586Z,20.15
2023-05-22T22:16:01.290Z,20.18
2023-05-22T22:18:28.004Z,20.21
2023-05-22T22:20:55.900Z,20.24
2023-05-22T22:23:22.825Z,20.42
2023-05-22T22:25:49.746Z,20.49
2023-05-22T22:28:16.656Z,20.55
2023-05-22T22:30:43.328Z,20.55
2023-05-22T22:33:10.128Z,20.52
2023-05-22T22:35:36.915Z,20.46
2023-05-22T22:38:03.580Z,20.39
2023-05-22T22:40:30.182Z,20.42
2023-05-22T22:42:56.804Z,20.37
2023-05-22T22:45:23.487Z,20.38
2023-05-22T22:47:50.599Z,20.31
2023-05-22T22:50:17.569Z,20.28
2023-05-22T22:52:47.706Z,20.06
2023-05-22T22:55:14.754Z,20.14
2023-05-22T22:57:44.774Z,20.07
2023-05-22T23:00:16.118Z,20.02
2023-05-22T23:02:43.069Z,19.84
2023-05-22T23:05:10.013Z,19.61
2023-05-22T23:07:36.776Z,19.60
2023-05-22T23:10:03.753Z,19.47
2023-05-22T23:12:35.085Z,19.56
2023-05-22T23:15:02.316Z,19.55
2023-05-22T23:17:28.945Z,19.59
2023-05-22T23:19:55.633Z,19.51
2023-05-22T23:22:22.373Z,19.49
2023-05-22T23:24:48.962Z,19.42
2023-05-22T23:27:15.617Z,19.24
2023-05-22T23:29:42.566Z,19.23
2023-05-22T23:32:09.180Z,19.41
2023-05-22T23:34:35.885Z,19.41
2023-05-22T23:37:02.527Z,19.41
2023-05-22T23:39:29.143Z,19.27
2023-05-22T23:41:55.844Z,19.32
2023-05-22T23:44:22.487Z,19.26
2023-05-22T23:46:50.082Z,19.21
2023-05-22T23:49:16.666Z,19.13
2023-05-22T23:51:43.343Z,19.20
2023-05-22T23:54:09.966Z,19.16
2023-05-22T23:56:36.660Z,19.09
2023-05-22T23:59:03.294Z,19.03
